createdAt,value
2022-10-25T00:01:17.107Z,0
2022-10-25T00:02:56.872Z,0
2022-10-25T00:04:36.652Z,0
2022-10-25T00:06:16.415Z,0
2022-10-25T00:07:56.166Z,0
2022-10-25T00:09:35.934Z,0
2022-10-25T00:11:15.724Z,0
2022-10-25T00:12:55.531Z,0
2022-10-25T00:14:35.234Z,0
2022-10-25T00:16:15.013Z,0
2022-10-25T00:17:54.793Z,0
2022-10-25T00:19:34.551Z,0
2022-10-25T00:21:14.298Z,0
2022-10-25T00:22:54.072Z,0
2022-10-25T00:24:33.846Z,0
2022-10-25T00:26:13.623Z,0
2022-10-25T00:27:53.391Z,0
2022-10-25T00:29:33.138Z,0
2022-10-25T00:31:12.904Z,0
2022-10-25T00:32:52.712Z,0
2022-10-25T00:34:32.431Z,0
2022-10-25T00:36:12.230Z,0
2022-10-25T00:37:51.996Z,0
2022-10-25T00:39:31.749Z,0
2022-10-25T00:41:11.509Z,0
2022-10-25T00:42:51.290Z,0
2022-10-25T00:44:31.057Z,0
2022-10-25T00:46:10.848Z,0
2022-10-25T00:47:50.601Z,0
2022-10-25T00:49:30.414Z,0
2022-10-25T00:51:10.110Z,0
2022-10-25T00:52:49.883Z,0
2022-10-25T00:54:29.649Z,0
2022-10-25T00:56:09.413Z,0
2022-10-25T00:57:49.180Z,0
2022-10-25T00:59:28.952Z,0
2022-10-25T01:01:08.719Z,0
2022-10-25T01:02:48.497Z,0
2022-10-25T01:04:28.265Z,0
2022-10-25T01:06:08.035Z,0
2022-10-25T01:07:47.793Z,0
2022-10-25T01:09:27.560Z,0
2022-10-25T01:11:07.328Z,0
2022-10-25T01:12:47.110Z,0
2022-10-25T01:14:26.946Z,0
2022-10-25T01:16:06.627Z,0
2022-10-25T01:17:46.404Z,0
2022-10-25T01:19:26.176Z,0
2022-10-25T01:21:05.930Z,0
2022-10-25T01:22:45.697Z,0
2022-10-25T01:24:25.458Z,0
2022-10-25T01:26:05.238Z,0
2022-10-25T01:27:45.003Z,0
2022-10-25T01:29:24.783Z,0
2022-10-25T01:31:04.531Z,0
2022-10-25T01:32:44.304Z,0
2022-10-25T01:34:24.077Z,0
2022-10-25T01:36:03.838Z,0
2022-10-25T01:37:43.612Z,0
2022-10-25T01:39:23.404Z,0
2022-10-25T01:41:03.135Z,0
2022-10-25T01:42:42.901Z,0
2022-10-25T01:44:22.679Z,0
2022-10-25T01:46:02.501Z,0
2022-10-25T01:47:42.223Z,0
2022-10-25T01:49:21.981Z,0
2022-10-25T01:51:01.733Z,0
2022-10-25T01:52:41.522Z,0
2022-10-25T01:54:21.312Z,0
2022-10-25T01:56:01.053Z,0
2022-10-25T01:57:40.830Z,0
2022-10-25T01:59:20.604Z,0
2022-10-25T02:01:00.357Z,0
2022-10-25T02:02:40.109Z,0
2022-10-25T02:04:19.895Z,0
2022-10-25T02:05:59.709Z,0
2022-10-25T02:07:39.429Z,0
2022-10-25T02:09:19.184Z,0
2022-10-25T02:10:58.952Z,0
2022-10-25T02:12:38.727Z,0
2022-10-25T02:14:18.484Z,0
2022-10-25T02:15:58.273Z,0
2022-10-25T02:17:38.020Z,0
2022-10-25T02:19:17.784Z,0
2022-10-25T02:20:57.564Z,0
2022-10-25T02:22:37.337Z,0
2022-10-25T02:24:17.100Z,0
2022-10-25T02:25:56.892Z,0
2022-10-25T02:27:36.627Z,0
2022-10-25T02:29:16.391Z,0
2022-10-25T02:30:56.172Z,0
2022-10-25T02:32:35.942Z,0
2022-10-25T02:34:15.692Z,0
2022-10-25T02:35:55.480Z,0
2022-10-25T02:37:35.242Z,0
2022-10-25T02:39:15.011Z,0
2022-10-25T02:40:54.770Z,0
2022-10-25T02:42:34.533Z,0
2022-10-25T02:44:14.331Z,0
2022-10-25T02:45:54.066Z,0
2022-10-25T02:47:33.837Z,0
2022-10-25T02:49:13.609Z,0
2022-10-25T02:50:53.376Z,0
2022-10-25T02:52:33.135Z,0
2022-10-25T02:54:12.918Z,0
2022-10-25T02:55:52.681Z,0
2022-10-25T02:57:32.532Z,0
2022-10-25T02:59:12.219Z,0
2022-10-25T03:00:51.971Z,0
2022-10-25T03:02:31.733Z,0
2022-10-25T03:04:11.518Z,0
2022-10-25T03:05:51.299Z,0
2022-10-25T03:07:31.063Z,0
2022-10-25T03:09:10.809Z,0
2022-10-25T03:10:50.585Z,0
2022-10-25T03:12:30.342Z,0
2022-10-25T03:14:10.116Z,0
2022-10-25T03:15:49.942Z,0
2022-10-25T03:17:29.652Z,0
2022-10-25T03:19:09.408Z,0
2022-10-25T03:20:49.196Z,0
2022-10-25T03:22:28.961Z,0
2022-10-25T03:24:08.715Z,0
2022-10-25T03:25:48.494Z,0
2022-10-25T03:27:28.256Z,0
2022-10-25T03:29:08.030Z,0
2022-10-25T03:30:47.800Z,0
2022-10-25T03:32:27.544Z,0
2022-10-25T03:34:07.317Z,0
2022-10-25T03:35:47.089Z,0
2022-10-25T03:37:26.916Z,0
2022-10-25T03:39:06.642Z,0
2022-10-25T03:40:46.405Z,0
2022-10-25T03:42:26.153Z,0
2022-10-25T03:44:05.929Z,0
2022-10-25T03:45:45.713Z,0
2022-10-25T03:47:25.467Z,0
2022-10-25T03:49:05.226Z,0
2022-10-25T03:50:44.990Z,0
2022-10-25T03:52:24.799Z,0
2022-10-25T03:54:04.541Z,0
2022-10-25T03:55:44.301Z,0
2022-10-25T03:57:24.047Z,0
2022-10-25T03:59:03.814Z,0
2022-10-25T04:00:43.633Z,0
2022-10-25T04:02:23.356Z,0
2022-10-25T04:04:03.173Z,0
2022-10-25T04:05:42.924Z,0
2022-10-25T04:07:22.642Z,0
2022-10-25T04:09:02.400Z,0
2022-10-25T04:10:42.174Z,0
2022-10-25T04:12:21.937Z,0
2022-10-25T04:14:01.692Z,0
2022-10-25T04:15:41.481Z,0
2022-10-25T04:17:21.238Z,0
2022-10-25T04:19:01.085Z,0
2022-10-25T04:20:40.769Z,0
2022-10-25T04:22:20.528Z,0
2022-10-25T04:24:00.298Z,0
2022-10-25T04:25:40.044Z,0
2022-10-25T04:27:19.812Z,0
2022-10-25T04:28:59.573Z,0
2022-10-25T04:30:39.341Z,0
2022-10-25T04:32:19.103Z,0
2022-10-25T04:33:58.874Z,0
2022-10-25T04:35:38.634Z,0
2022-10-25T04:37:18.455Z,0
2022-10-25T04:38:58.165Z,0
2022-10-25T04:40:37.961Z,0
2022-10-25T04:42:17.704Z,0
2022-10-25T04:45:37.264Z,0
2022-10-25T04:47:17.031Z,0
2022-10-25T04:48:56.748Z,0
2022-10-25T04:50:36.523Z,0
2022-10-25T04:52:16.288Z,0
2022-10-25T04:53:56.066Z,0
2022-10-25T04:55:35.820Z,0
2022-10-25T04:57:15.636Z,0
2022-10-25T04:58:55.345Z,0
2022-10-25T05:00:35.188Z,0
2022-10-25T05:02:14.906Z,0
2022-10-25T05:03:54.709Z,0
2022-10-25T05:05:34.412Z,0
2022-10-25T05:07:14.199Z,0
2022-10-25T05:08:53.941Z,0
2022-10-25T05:10:33.690Z,0
2022-10-25T05:12:13.492Z,0
2022-10-25T05:13:53.237Z,0
2022-10-25T05:15:32.995Z,0
2022-10-25T05:17:12.763Z,0
2022-10-25T05:18:52.531Z,0
2022-10-25T05:20:32.276Z,0
2022-10-25T05:22:12.060Z,0
2022-10-25T05:23:51.825Z,0
2022-10-25T05:25:31.571Z,0
2022-10-25T05:27:11.376Z,0
2022-10-25T05:28:51.088Z,0
2022-10-25T05:30:30.857Z,0
2022-10-25T05:32:10.631Z,0
2022-10-25T05:33:50.404Z,0
2022-10-25T05:35:30.150Z,0
2022-10-25T05:37:09.926Z,0
2022-10-25T05:38:49.770Z,0
2022-10-25T05:40:29.447Z,0
2022-10-25T05:42:09.262Z,0
2022-10-25T05:43:48.978Z,0
2022-10-25T05:45:28.847Z,0
2022-10-25T05:47:08.542Z,0
2022-10-25T05:48:48.319Z,0
2022-10-25T05:50:28.033Z,0
2022-10-25T05:52:07.834Z,0
2022-10-25T05:53:47.570Z,0
2022-10-25T05:55:27.323Z,0
2022-10-25T05:57:07.119Z,0
2022-10-25T05:58:46.867Z,0
2022-10-25T06:00:26.631Z,0
2022-10-25T06:02:06.421Z,0
2022-10-25T06:03:46.150Z,0
2022-10-25T06:05:25.917Z,0
2022-10-25T06:07:05.683Z,0.25
2022-10-25T06:08:45.451Z,0
2022-10-25T06:10:25.212Z,0
2022-10-25T06:12:05.049Z,0
2022-10-25T06:13:44.805Z,2.04
2022-10-25T06:15:24.498Z,1.54
2022-10-25T06:17:04.318Z,1.8
2022-10-25T06:18:44.033Z,1.03
2022-10-25T06:20:23.822Z,1.54
2022-10-25T06:22:03.570Z,1.8
2022-10-25T06:23:43.322Z,1.54
2022-10-25T06:25:23.094Z,0.25
2022-10-25T06:27:02.869Z,1.54
2022-10-25T06:28:42.625Z,3.61
2022-10-25T06:30:22.402Z,10.88
2022-10-25T06:32:02.175Z,5.96
2022-10-25T06:33:41.942Z,7.78
2022-10-25T06:35:21.702Z,4.15
2022-10-25T06:37:01.483Z,4.92
2022-10-25T06:38:41.257Z,11.15
2022-10-25T06:40:21.030Z,6.25
2022-10-25T06:42:00.828Z,4.67
2022-10-25T06:43:40.554Z,5.72
2022-10-25T06:45:20.324Z,0.78
2022-10-25T06:47:00.102Z,4.16
2022-10-25T06:48:39.873Z,6.77
2022-10-25T06:50:19.629Z,6.53
2022-10-25T06:51:59.410Z,6.79
2022-10-25T06:53:39.200Z,9.43
2022-10-25T06:55:18.949Z,14.18
2022-10-25T06:56:58.765Z,14.46
2022-10-25T06:58:38.491Z,9.47
2022-10-25T07:00:18.255Z,8.16
2022-10-25T07:01:58.031Z,7.1
2022-10-25T07:03:37.801Z,2.35
2022-10-25T07:05:17.609Z,8.68
2022-10-25T07:06:57.355Z,11.34
2022-10-25T07:08:37.109Z,19.07
2022-10-25T07:10:16.884Z,15.13
2022-10-25T07:11:56.717Z,19.43
2022-10-25T07:13:36.419Z,14.1
2022-10-25T07:15:16.212Z,16.26
2022-10-25T07:18:35.731Z,21.46
2022-10-25T07:20:15.501Z,23.68
2022-10-25T07:21:55.267Z,25.37
2022-10-25T07:23:35.054Z,24.61
2022-10-25T07:25:14.811Z,23.57
2022-10-25T07:26:54.588Z,23.63
2022-10-25T07:28:34.363Z,29.17
2022-10-25T07:30:14.155Z,38.83
2022-10-25T07:31:53.907Z,61.04
2022-10-25T07:33:33.659Z,51.08
2022-10-25T07:35:13.441Z,44.44
2022-10-25T07:36:53.242Z,50.85
2022-10-25T07:38:32.976Z,57.3
2022-10-25T07:40:12.765Z,66.24
2022-10-25T07:41:52.554Z,67.9
2022-10-25T07:43:32.295Z,58.76
2022-10-25T07:45:12.080Z,55.69
2022-10-25T07:46:51.872Z,58.22
2022-10-25T07:48:31.603Z,54.75
2022-10-25T07:50:11.372Z,43.18
2022-10-25T07:51:51.141Z,36.66
2022-10-25T07:53:30.966Z,38.31
2022-10-25T07:55:10.684Z,21.31
2022-10-25T07:56:50.459Z,20.1
2022-10-25T07:58:30.223Z,26
2022-10-25T08:00:10.017Z,31.14
2022-10-25T08:01:49.755Z,40.07
2022-10-25T08:03:29.596Z,44.93
2022-10-25T08:05:09.328Z,48.11
2022-10-25T08:06:49.112Z,46.81
2022-10-25T08:08:28.829Z,45.86
2022-10-25T08:10:08.615Z,46.24
2022-10-25T08:11:48.395Z,40.13
2022-10-25T08:13:28.144Z,27.66
2022-10-25T08:15:07.967Z,28.17
2022-10-25T08:16:47.852Z,31.23
2022-10-25T08:18:27.625Z,35
2022-10-25T08:20:07.259Z,36
2022-10-25T08:21:47.120Z,38.84
2022-10-25T08:23:26.983Z,37.45
2022-10-25T08:25:06.690Z,36.11
2022-10-25T08:26:46.408Z,36.99
2022-10-25T08:28:26.152Z,45.16
2022-10-25T08:30:05.849Z,34.06
2022-10-25T08:31:45.628Z,44.35
2022-10-25T08:33:25.421Z,43.14
2022-10-25T08:35:05.162Z,42.55
2022-10-25T08:36:44.953Z,42.55
2022-10-25T08:38:24.708Z,42.89
2022-10-25T08:40:04.526Z,42.31
2022-10-25T08:41:44.286Z,41.37
2022-10-25T08:43:24.151Z,40.11
2022-10-25T08:45:03.919Z,28.41
2022-10-25T08:46:43.722Z,19.1
2022-10-25T08:48:23.583Z,30.73
2022-10-25T08:50:03.366Z,53.39
2022-10-25T08:51:43.053Z,43.85
2022-10-25T08:53:22.820Z,42
2022-10-25T08:55:02.653Z,41.42
2022-10-25T08:56:42.407Z,40.21
2022-10-25T08:58:22.106Z,41.67
2022-10-25T09:00:01.921Z,40.21
2022-10-25T09:01:41.630Z,40.24
2022-10-25T09:03:21.465Z,40.82
2022-10-25T09:05:01.187Z,40.81
2022-10-25T09:06:41.026Z,40.21
2022-10-25T09:08:20.708Z,40.47
2022-10-25T09:10:00.477Z,39.33
2022-10-25T09:11:40.250Z,39.63
2022-10-25T09:13:20.026Z,39.64
2022-10-25T09:14:59.782Z,40.81
2022-10-25T09:16:39.630Z,40.5
2022-10-25T09:18:19.323Z,40.49
2022-10-25T09:19:59.101Z,40.22
2022-10-25T09:21:38.878Z,40.47
2022-10-25T09:23:18.642Z,39.27
2022-10-25T09:24:58.443Z,39.57
2022-10-25T09:26:38.187Z,38.09
2022-10-25T09:28:17.983Z,39.04
2022-10-25T09:29:57.730Z,39.59
2022-10-25T09:31:37.488Z,36.95
2022-10-25T09:33:17.301Z,39.63
2022-10-25T09:34:57.031Z,38.43
2022-10-25T09:36:36.956Z,37.84
2022-10-25T09:38:16.723Z,39.59
2022-10-25T09:39:56.587Z,38.43
2022-10-25T09:41:36.120Z,37.84
2022-10-25T09:44:55.766Z,40.21
2022-10-25T09:46:35.542Z,39
2022-10-25T09:48:15.323Z,39.63
2022-10-25T09:49:54.957Z,38.71
2022-10-25T09:51:34.769Z,35.8
2022-10-25T09:53:14.569Z,38.16
2022-10-25T09:54:54.293Z,38.16
2022-10-25T09:56:34.089Z,37.57
2022-10-25T09:58:13.808Z,38.13
2022-10-25T09:59:53.598Z,38.13
2022-10-25T10:01:33.440Z,37.56
2022-10-25T10:03:13.236Z,37.56
2022-10-25T10:04:53.009Z,37.25
2022-10-25T10:06:32.668Z,40.3
2022-10-25T10:08:12.617Z,38.14
2022-10-25T10:09:52.273Z,37.93
2022-10-25T10:11:32.026Z,36.83
2022-10-25T10:13:11.854Z,37.88
2022-10-25T10:14:51.633Z,37.55
2022-10-25T10:16:31.400Z,37.53
2022-10-25T10:18:11.090Z,36.96
2022-10-25T10:19:50.863Z,35.46
2022-10-25T10:21:30.662Z,36.08
2022-10-25T10:23:10.429Z,36.7
2022-10-25T10:24:50.148Z,36.08
2022-10-25T10:26:29.915Z,35.81
2022-10-25T10:28:09.762Z,35.5
2022-10-25T10:29:49.474Z,35.18
2022-10-25T10:31:29.224Z,35.53
2022-10-25T10:33:09.025Z,36.68
2022-10-25T10:34:48.844Z,36.34
2022-10-25T10:36:28.545Z,35.8
2022-10-25T10:39:48.097Z,35.8
2022-10-25T10:41:27.854Z,35.78
2022-10-25T10:43:07.629Z,34.93
2022-10-25T10:44:47.377Z,34.32
2022-10-25T10:46:27.171Z,33.03
2022-10-25T10:48:06.939Z,34.91
2022-10-25T10:49:46.745Z,34.66
2022-10-25T10:51:26.481Z,35.22
2022-10-25T10:53:06.277Z,34.36
2022-10-25T10:54:46.033Z,35.21
2022-10-25T10:56:25.787Z,34.34
2022-10-25T10:58:05.624Z,34.9
2022-10-25T10:59:45.417Z,34.93
2022-10-25T11:01:25.248Z,34.31
2022-10-25T11:03:04.976Z,33.75
2022-10-25T11:04:44.765Z,34.56
2022-10-25T11:06:24.559Z,32.48
2022-10-25T11:08:04.286Z,32.95
2022-10-25T11:09:43.965Z,35.23
2022-10-25T11:11:23.838Z,33.75
2022-10-25T11:13:03.619Z,35.23
2022-10-25T11:14:43.391Z,33.75
2022-10-25T11:16:23.137Z,34.61
2022-10-25T11:18:02.926Z,34.89
2022-10-25T11:19:42.644Z,34.64
2022-10-25T11:21:22.347Z,34.5
2022-10-25T11:23:02.120Z,33.68
2022-10-25T11:24:42.030Z,34.9
2022-10-25T11:26:21.666Z,34.25
2022-10-25T11:29:41.223Z,34.29
2022-10-25T11:31:20.966Z,33.41
2022-10-25T11:33:00.735Z,34.32
2022-10-25T11:34:40.565Z,34.61
2022-10-25T11:36:20.275Z,34.33
2022-10-25T11:38:00.132Z,33.74
2022-10-25T11:39:39.805Z,34.34
2022-10-25T11:41:19.571Z,34.02
2022-10-25T11:42:59.348Z,34.59
2022-10-25T11:44:39.176Z,34.04
2022-10-25T11:46:18.888Z,33.72
2022-10-25T11:47:58.662Z,34.32
2022-10-25T11:49:38.525Z,35.21
2022-10-25T11:51:18.205Z,0
2022-10-25T11:52:58.064Z,0
2022-10-25T11:54:37.751Z,0
2022-10-25T11:56:17.604Z,0
2022-10-25T11:57:57.277Z,0
2022-10-25T11:59:37.054Z,0
2022-10-25T12:01:16.852Z,0
2022-10-25T12:02:56.710Z,0
2022-10-25T12:04:36.479Z,5.72
2022-10-25T12:06:16.243Z,6.54
2022-10-25T12:07:55.930Z,7.63
2022-10-25T12:09:35.705Z,7.09
2022-10-25T12:11:15.540Z,6.81
2022-10-25T12:12:55.328Z,7.36
2022-10-25T12:14:35.105Z,6.81
2022-10-25T12:16:14.848Z,7.9
2022-10-25T12:17:54.558Z,8.43
2022-10-25T12:19:34.339Z,7.05
2022-10-25T12:21:14.055Z,7.89
2022-10-25T12:22:53.840Z,7.08
2022-10-25T12:24:33.649Z,8.45
2022-10-25T12:26:13.383Z,7.63
2022-10-25T12:27:53.136Z,5.99
2022-10-25T12:29:32.952Z,7.07
2022-10-25T12:31:12.736Z,7.08
2022-10-25T12:32:52.488Z,7.35
2022-10-25T12:34:32.328Z,7.89
2022-10-25T12:36:12.002Z,7.62
2022-10-25T12:37:51.865Z,8.16
2022-10-25T12:39:31.591Z,8.43
2022-10-25T12:41:11.304Z,8.72
2022-10-25T12:42:51.191Z,8.72
2022-10-25T12:44:30.838Z,10.09
2022-10-25T12:46:10.642Z,10.08
2022-10-25T12:47:50.372Z,7.63
2022-10-25T12:49:30.158Z,8.18
2022-10-25T12:51:09.967Z,7.08
2022-10-25T12:52:49.832Z,6.53
2022-10-25T12:54:29.461Z,5.99
2022-10-25T12:56:09.385Z,6.53
2022-10-25T12:57:49.062Z,6.8
2022-10-25T12:59:28.810Z,8.16
2022-10-25T13:01:08.598Z,7.89
2022-10-25T13:02:48.440Z,8.16
2022-10-25T13:04:28.188Z,7.08
2022-10-25T13:06:07.865Z,7.07
2022-10-25T13:07:47.642Z,6.8
2022-10-25T13:09:27.446Z,7.07
2022-10-25T13:11:07.297Z,6.8
2022-10-25T13:12:47.058Z,6.8
2022-10-25T13:14:26.847Z,7.35
2022-10-25T13:16:06.588Z,6.8
2022-10-25T13:17:46.319Z,6.8
2022-10-25T13:19:26.054Z,7.35
2022-10-25T13:21:05.853Z,7.62
2022-10-25T13:22:45.695Z,8.72
2022-10-25T13:24:25.333Z,8.72
2022-10-25T13:26:05.164Z,8.45
2022-10-25T13:29:24.664Z,7.08
2022-10-25T13:31:04.399Z,7.07
2022-10-25T13:32:44.171Z,7.35
2022-10-25T13:34:23.945Z,7.35
2022-10-25T13:36:03.781Z,7.35
2022-10-25T13:37:43.503Z,7.05
2022-10-25T13:39:23.328Z,6.26
2022-10-25T13:41:03.051Z,6.8
2022-10-25T13:42:42.839Z,6.8
2022-10-25T13:44:22.577Z,7.34
2022-10-25T13:46:02.464Z,6.26
2022-10-25T13:47:42.106Z,6.8
2022-10-25T13:49:21.884Z,7.07
2022-10-25T13:52:41.524Z,7.62
2022-10-25T13:54:21.224Z,7.62
2022-10-25T13:56:00.955Z,7.62
2022-10-25T13:57:40.735Z,8.43
2022-10-25T13:59:20.509Z,8.17
2022-10-25T14:01:00.308Z,8.72
2022-10-25T14:02:40.054Z,8.43
2022-10-25T14:04:19.816Z,8.45
2022-10-25T14:05:59.654Z,7.36
2022-10-25T14:07:39.342Z,7.63
2022-10-25T14:09:19.105Z,7.63
2022-10-25T14:10:58.919Z,7.35
2022-10-25T14:12:38.662Z,7.08
2022-10-25T14:14:18.465Z,7.35
2022-10-25T14:15:58.230Z,7.08
2022-10-25T14:17:37.995Z,6.53
2022-10-25T14:19:17.728Z,7.07
2022-10-25T14:20:57.499Z,7.08
2022-10-25T14:22:37.298Z,7.08
2022-10-25T14:24:17.040Z,6.81
2022-10-25T14:25:56.801Z,6.53
2022-10-25T14:27:36.571Z,7.35
2022-10-25T14:29:16.386Z,7.86
2022-10-25T14:30:56.167Z,7.35
2022-10-25T14:32:35.945Z,7.35
2022-10-25T14:34:15.761Z,7.35
2022-10-25T14:35:55.538Z,6.81
2022-10-25T14:37:35.202Z,6.53
2022-10-25T14:39:15.065Z,7.07
2022-10-25T14:40:54.802Z,5.98
2022-10-25T14:42:34.500Z,5.98
2022-10-25T14:44:14.336Z,7.07
2022-10-25T14:45:54.065Z,7.35
2022-10-25T14:47:33.845Z,7.9
2022-10-25T14:49:13.696Z,8.72
2022-10-25T14:50:53.369Z,7.63
2022-10-25T14:52:33.146Z,7.63
2022-10-25T14:54:12.988Z,7.36
2022-10-25T14:55:52.680Z,7.63
2022-10-25T14:57:32.451Z,7.09
2022-10-25T14:59:12.231Z,7.63
2022-10-25T15:00:52.094Z,8.18
2022-10-25T15:02:31.765Z,8.18
2022-10-25T15:04:11.579Z,7.63
2022-10-25T15:05:51.323Z,7.63
2022-10-25T15:07:31.085Z,7.9
2022-10-25T15:09:10.842Z,5.99
2022-10-25T15:10:50.611Z,6.81
2022-10-25T15:12:30.405Z,6.26
2022-10-25T15:14:10.155Z,5.98
2022-10-25T15:15:49.914Z,6.8
2022-10-25T15:17:29.762Z,5.98
2022-10-25T15:19:09.577Z,10.35
2022-10-25T15:20:49.335Z,7.36
2022-10-25T15:22:29.150Z,5.45
2022-10-25T15:24:08.892Z,5.44
2022-10-25T15:25:48.669Z,3.53
2022-10-25T15:27:28.382Z,3.25
2022-10-25T15:29:08.165Z,2.16
2022-10-25T15:30:47.903Z,2.43
2022-10-25T15:32:27.673Z,1.08
2022-10-25T15:34:07.515Z,1.34
2022-10-25T15:35:47.199Z,0.26
2022-10-25T15:37:26.983Z,0
2022-10-25T15:39:06.807Z,0
2022-10-25T15:40:46.550Z,0
2022-10-25T15:42:26.237Z,0
2022-10-25T15:44:06.117Z,0
2022-10-25T15:45:45.827Z,0
2022-10-25T15:47:25.609Z,0
2022-10-25T15:49:05.300Z,0
2022-10-25T15:50:45.209Z,0
2022-10-25T15:52:24.924Z,0
2022-10-25T15:54:04.628Z,0
2022-10-25T15:55:44.452Z,0
2022-10-25T15:57:24.184Z,0
2022-10-25T15:59:03.954Z,0
2022-10-25T16:00:43.732Z,0
2022-10-25T16:02:23.522Z,0
2022-10-25T16:04:03.320Z,0
2022-10-25T16:05:42.965Z,0
2022-10-25T16:07:22.764Z,0
2022-10-25T16:09:02.607Z,0
2022-10-25T16:10:42.297Z,0
2022-10-25T16:12:22.049Z,0
2022-10-25T16:14:01.907Z,0
2022-10-25T16:15:41.644Z,0
2022-10-25T16:17:21.344Z,0
2022-10-25T16:19:01.106Z,0
2022-10-25T16:20:40.869Z,0
2022-10-25T16:22:20.648Z,0
2022-10-25T16:24:00.485Z,0
2022-10-25T16:25:40.241Z,0
2022-10-25T16:27:20.001Z,0
2022-10-25T16:28:59.741Z,0
2022-10-25T16:30:39.504Z,0
2022-10-25T16:32:19.290Z,0
2022-10-25T16:33:59.086Z,0
2022-10-25T16:35:38.800Z,0
2022-10-25T16:37:18.561Z,0
2022-10-25T16:38:58.330Z,0
2022-10-25T16:40:38.182Z,0
2022-10-25T16:42:17.879Z,0
2022-10-25T16:43:57.630Z,0
2022-10-25T16:45:37.406Z,0
2022-10-25T16:47:17.160Z,0
2022-10-25T16:48:56.940Z,0
2022-10-25T16:50:36.744Z,0
2022-10-25T16:52:16.459Z,0
2022-10-25T16:53:56.254Z,0
2022-10-25T16:55:36.009Z,0
2022-10-25T16:57:15.794Z,0
2022-10-25T16:58:55.542Z,0
2022-10-25T17:00:35.356Z,0
2022-10-25T17:02:15.078Z,0
2022-10-25T17:03:54.849Z,0
2022-10-25T17:05:34.650Z,0
2022-10-25T17:07:14.423Z,0
2022-10-25T17:08:54.263Z,0
2022-10-25T17:10:33.973Z,0
2022-10-25T17:12:13.762Z,0
2022-10-25T17:13:53.514Z,0
2022-10-25T17:15:33.243Z,0
2022-10-25T17:17:13.056Z,0
2022-10-25T17:18:52.743Z,0
2022-10-25T17:20:32.501Z,0
2022-10-25T17:22:12.328Z,0
2022-10-25T17:23:52.068Z,0
2022-10-25T17:25:31.864Z,0
2022-10-25T17:27:11.618Z,0
2022-10-25T17:28:51.349Z,0
2022-10-25T17:30:31.122Z,0
2022-10-25T17:32:10.944Z,0
2022-10-25T17:33:50.724Z,0
2022-10-25T17:35:30.422Z,0
2022-10-25T17:37:10.237Z,0
2022-10-25T17:38:49.965Z,0
2022-10-25T17:40:29.723Z,0
2022-10-25T17:43:49.268Z,0
2022-10-25T17:45:29.039Z,0
2022-10-25T17:47:08.835Z,0
2022-10-25T17:48:48.652Z,0
2022-10-25T17:50:28.373Z,0
2022-10-25T17:52:08.192Z,0
2022-10-25T17:53:47.845Z,0
2022-10-25T17:55:27.636Z,0
2022-10-25T17:57:07.403Z,0
2022-10-25T17:58:47.187Z,0
2022-10-25T18:00:26.937Z,0
2022-10-25T18:02:06.689Z,0
2022-10-25T18:03:46.494Z,0
2022-10-25T18:05:26.229Z,0
2022-10-25T18:07:06.032Z,0
2022-10-25T18:08:45.862Z,0
2022-10-25T18:10:25.558Z,0
2022-10-25T18:12:05.330Z,0
2022-10-25T18:13:45.162Z,0
2022-10-25T18:15:24.844Z,0
2022-10-25T18:17:04.598Z,0
2022-10-25T18:18:44.367Z,0
2022-10-25T18:20:24.160Z,0
2022-10-25T18:22:03.903Z,0
2022-10-25T18:23:43.683Z,0
2022-10-25T18:25:23.461Z,0
2022-10-25T18:27:03.196Z,0
2022-10-25T18:28:42.970Z,0
2022-10-25T18:30:22.751Z,0
2022-10-25T18:32:02.621Z,0
2022-10-25T18:33:42.265Z,0
2022-10-25T18:35:22.145Z,0
2022-10-25T18:37:01.809Z,0
2022-10-25T18:38:41.589Z,0
2022-10-25T18:40:21.398Z,0
2022-10-25T18:42:01.169Z,0
2022-10-25T18:43:40.881Z,0
2022-10-25T18:45:20.760Z,0
2022-10-25T18:47:00.405Z,0
2022-10-25T18:48:40.228Z,0
2022-10-25T18:50:20.027Z,0
2022-10-25T18:51:59.799Z,0
2022-10-25T18:53:39.517Z,0
2022-10-25T18:55:19.269Z,0
2022-10-25T18:56:59.021Z,0
2022-10-25T18:58:38.792Z,0
2022-10-25T19:00:18.558Z,0
2022-10-25T19:01:58.315Z,0
2022-10-25T19:03:38.083Z,0
2022-10-25T19:05:17.864Z,0
2022-10-25T19:06:57.621Z,0
2022-10-25T19:08:37.416Z,0
2022-10-25T19:10:17.167Z,0
2022-10-25T19:11:56.967Z,0
2022-10-25T19:13:36.760Z,0
2022-10-25T19:15:16.463Z,0
2022-10-25T19:16:56.250Z,0
2022-10-25T19:18:36.005Z,0
2022-10-25T19:20:15.759Z,0
2022-10-25T19:21:55.591Z,0
2022-10-25T19:23:35.301Z,0
2022-10-25T19:25:15.076Z,0
2022-10-25T19:26:54.846Z,0
2022-10-25T19:28:34.595Z,0
2022-10-25T19:30:14.378Z,0
2022-10-25T19:31:54.151Z,0
2022-10-25T19:33:33.915Z,0
2022-10-25T19:35:13.705Z,0
2022-10-25T19:36:53.440Z,0
2022-10-25T19:38:33.208Z,0
2022-10-25T19:40:13.020Z,0
2022-10-25T19:41:52.741Z,0
2022-10-25T19:43:32.510Z,0
2022-10-25T19:45:12.268Z,0
2022-10-25T19:46:52.041Z,0
2022-10-25T19:48:31.805Z,0
2022-10-25T19:50:11.577Z,0
2022-10-25T19:51:51.353Z,0
2022-10-25T19:53:31.137Z,0
2022-10-25T19:55:10.908Z,0
2022-10-25T19:56:50.649Z,0
2022-10-25T19:58:30.432Z,0
2022-10-25T20:00:10.178Z,0
2022-10-25T20:01:49.967Z,0
2022-10-25T20:03:29.737Z,0
2022-10-25T20:05:09.542Z,0
2022-10-25T20:06:49.252Z,0
2022-10-25T20:08:29.044Z,0
2022-10-25T20:10:08.778Z,0
2022-10-25T20:11:48.560Z,0
2022-10-25T20:13:28.313Z,0
2022-10-25T20:15:08.080Z,0
2022-10-25T20:16:47.858Z,0
2022-10-25T20:18:27.718Z,0
2022-10-25T20:20:07.379Z,0
2022-10-25T20:21:47.181Z,0
2022-10-25T20:23:26.916Z,0
2022-10-25T20:26:46.466Z,0
2022-10-25T20:28:26.230Z,0
2022-10-25T20:30:06.023Z,0
2022-10-25T20:31:45.806Z,0
2022-10-25T20:33:25.530Z,0
2022-10-25T20:35:05.299Z,0
2022-10-25T20:36:45.074Z,0
2022-10-25T20:38:24.822Z,0
2022-10-25T20:40:04.615Z,0
2022-10-25T20:41:44.367Z,0
2022-10-25T20:43:24.141Z,0
2022-10-25T20:45:03.949Z,0
2022-10-25T20:46:43.682Z,0
2022-10-25T20:48:23.441Z,0
2022-10-25T20:50:03.232Z,0
2022-10-25T20:51:42.982Z,0
2022-10-25T20:53:22.733Z,0
2022-10-25T20:55:02.525Z,0
2022-10-25T20:56:42.317Z,0
2022-10-25T20:58:22.057Z,0
2022-10-25T21:00:01.859Z,0
2022-10-25T21:01:41.574Z,0
2022-10-25T21:03:21.372Z,0
2022-10-25T21:05:01.150Z,0
2022-10-25T21:06:40.908Z,0
2022-10-25T21:08:20.708Z,0
2022-10-25T21:10:00.422Z,0
2022-10-25T21:11:40.181Z,0
2022-10-25T21:13:19.957Z,0
2022-10-25T21:14:59.713Z,0
2022-10-25T21:16:39.483Z,0
2022-10-25T21:18:19.261Z,0
2022-10-25T21:19:59.010Z,0
2022-10-25T21:21:38.790Z,0
2022-10-25T21:23:18.556Z,0
2022-10-25T21:24:58.319Z,0
2022-10-25T21:26:38.090Z,0
2022-10-25T21:28:17.855Z,0
2022-10-25T21:29:57.629Z,0
2022-10-25T21:31:37.381Z,0
2022-10-25T21:33:17.185Z,0
2022-10-25T21:34:56.953Z,0
2022-10-25T21:36:36.792Z,0
2022-10-25T21:38:16.470Z,0
2022-10-25T21:39:56.222Z,0
2022-10-25T21:41:35.994Z,0
2022-10-25T21:43:15.753Z,0
2022-10-25T21:44:55.527Z,0
2022-10-25T21:46:35.296Z,0
2022-10-25T21:48:15.067Z,0
2022-10-25T21:49:54.813Z,0
2022-10-25T21:51:34.595Z,0
2022-10-25T21:53:14.370Z,0
2022-10-25T21:54:54.135Z,0
2022-10-25T21:56:33.916Z,0
2022-10-25T21:58:13.649Z,0
2022-10-25T21:59:53.445Z,0
2022-10-25T22:01:33.206Z,0
2022-10-25T22:03:12.996Z,0
2022-10-25T22:04:52.741Z,0
2022-10-25T22:06:32.503Z,0
2022-10-25T22:08:12.264Z,0
2022-10-25T22:09:52.053Z,0
2022-10-25T22:13:11.561Z,0
2022-10-25T22:14:51.358Z,0
2022-10-25T22:16:31.108Z,0
2022-10-25T22:18:10.972Z,0
2022-10-25T22:19:50.658Z,0
2022-10-25T22:21:30.405Z,0
2022-10-25T22:23:10.181Z,0
2022-10-25T22:24:49.951Z,0
2022-10-25T22:26:29.711Z,0
2022-10-25T22:28:09.484Z,0
2022-10-25T22:29:49.249Z,0
2022-10-25T22:31:29.021Z,0
2022-10-25T22:33:08.787Z,0
2022-10-25T22:36:28.312Z,0
2022-10-25T22:38:08.101Z,0
2022-10-25T22:39:47.853Z,0
2022-10-25T22:41:27.621Z,0
2022-10-25T22:43:07.406Z,0
2022-10-25T22:44:47.156Z,0
2022-10-25T22:46:26.909Z,0
2022-10-25T22:48:06.678Z,0
2022-10-25T22:49:46.473Z,0
2022-10-25T22:51:26.225Z,0
2022-10-25T22:53:05.997Z,0
2022-10-25T22:54:45.806Z,0
2022-10-25T22:56:25.527Z,0
2022-10-25T22:58:05.285Z,0
2022-10-25T22:59:45.068Z,0
2022-10-25T23:01:24.821Z,0
2022-10-25T23:03:04.599Z,0
2022-10-25T23:04:44.353Z,0
2022-10-25T23:06:24.128Z,0
2022-10-25T23:08:03.888Z,0
2022-10-25T23:09:43.655Z,0
2022-10-25T23:11:23.433Z,0
2022-10-25T23:13:03.219Z,0
2022-10-25T23:14:42.966Z,0
2022-10-25T23:16:22.728Z,0
2022-10-25T23:18:02.499Z,0
2022-10-25T23:19:42.265Z,0
2022-10-25T23:21:22.035Z,0
2022-10-25T23:23:01.829Z,0
2022-10-25T23:24:41.565Z,0
2022-10-25T23:26:21.340Z,0
2022-10-25T23:28:01.098Z,0
2022-10-25T23:29:40.874Z,0
2022-10-25T23:31:20.650Z,0
2022-10-25T23:33:00.409Z,0
2022-10-25T23:34:40.190Z,0
2022-10-25T23:36:19.975Z,0
2022-10-25T23:37:59.725Z,0
2022-10-25T23:39:39.485Z,0
2022-10-25T23:41:19.248Z,0
2022-10-25T23:42:59.022Z,0
2022-10-25T23:44:38.785Z,0
2022-10-25T23:46:18.545Z,0